createdAt,value
2023-04-16T00:00:13.023Z,18.2843
2023-04-16T00:01:15.368Z,18.3072
2023-04-16T00:02:17.824Z,18.5637
2023-04-16T00:03:20.245Z,19.4726
2023-04-16T00:04:22.389Z,19.8189
2023-04-16T00:05:24.685Z,17.4616
2023-04-16T00:06:27.030Z,17.5558
2023-04-16T00:07:29.349Z,15.7347
2023-04-16T00:08:31.694Z,17.1147
2023-04-16T00:09:34.019Z,18.1736
2023-04-16T00:10:36.337Z,18.1119
2023-04-16T00:11:38.662Z,20.3190
2023-04-16T00:12:40.992Z,18.9611
2023-04-16T00:13:43.326Z,17.7826
2023-04-16T00:14:45.663Z,17.5024
2023-04-16T00:15:47.982Z,17.7424
2023-04-16T00:16:50.420Z,20.1138
2023-04-16T00:17:52.773Z,18.4519
2023-04-16T00:18:54.992Z,17.6252
2023-04-16T00:19:57.315Z,16.9668
2023-04-16T00:20:59.688Z,17.2181
2023-04-16T00:22:01.966Z,19.4711
2023-04-16T00:23:04.288Z,19.0517
2023-04-16T00:24:06.675Z,17.9047
2023-04-16T00:25:08.976Z,18.8347
2023-04-16T00:26:11.344Z,20.0189
2023-04-16T00:27:13.626Z,19.9568
2023-04-16T00:28:15.970Z,19.8837
2023-04-16T00:29:18.279Z,18.7322
2023-04-16T00:30:20.616Z,18.9830
2023-04-16T00:31:23.063Z,18.8642
2023-04-16T00:32:25.307Z,18.5264
2023-04-16T00:33:27.708Z,18.6344
2023-04-16T00:34:29.959Z,20.6077
2023-04-16T00:35:32.332Z,17.8822
2023-04-16T00:36:34.591Z,17.4619
2023-04-16T00:37:36.953Z,18.8866
2023-04-16T00:38:39.293Z,17.1462
2023-04-16T00:39:41.580Z,17.5615
2023-04-16T00:40:43.925Z,18.3962
2023-04-16T00:41:46.263Z,18.8044
2023-04-16T00:42:48.628Z,20.3739
2023-04-16T00:43:50.936Z,18.7439
2023-04-16T00:44:53.260Z,20.6146
2023-04-16T00:45:55.658Z,20.8158
2023-04-16T00:46:57.934Z,21.1868
2023-04-16T00:48:00.669Z,21.7514
2023-04-16T00:49:02.624Z,19.7623
2023-04-16T00:50:04.950Z,21.5630
2023-04-16T00:51:07.278Z,21.4036
2023-04-16T00:52:09.638Z,19.7111
2023-04-16T00:53:11.937Z,19.1510
2023-04-16T00:54:14.254Z,19.9782
2023-04-16T00:55:16.602Z,19.5211
2023-04-16T00:56:18.933Z,18.8265
2023-04-16T00:57:21.269Z,18.5826
2023-04-16T00:58:23.653Z,19.6438
2023-04-16T00:59:25.900Z,18.6812
2023-04-16T01:00:28.266Z,18.9298
2023-04-16T01:01:30.638Z,18.9286
2023-04-16T01:02:32.991Z,18.5568
2023-04-16T01:03:35.471Z,17.4454
2023-04-16T01:04:37.636Z,18.8881
2023-04-16T01:05:39.932Z,21.1161
2023-04-16T01:06:42.298Z,22.0659
2023-04-16T01:07:44.584Z,22.2061
2023-04-16T01:08:46.894Z,21.7396
2023-04-16T01:09:49.248Z,24.3884
2023-04-16T01:10:51.595Z,24.9084
2023-04-16T01:11:53.891Z,25.2124
2023-04-16T01:12:56.234Z,23.9300
2023-04-16T01:13:58.606Z,22.6466
2023-04-16T01:15:00.903Z,24.3298
2023-04-16T01:16:03.246Z,26.2018
2023-04-16T01:17:05.630Z,24.6526
2023-04-16T01:18:07.917Z,24.3211
2023-04-16T01:19:10.353Z,25.9559
2023-04-16T01:20:12.534Z,23.6488
2023-04-16T01:21:14.928Z,24.4914
2023-04-16T01:22:17.211Z,24.9008
2023-04-16T01:23:19.672Z,26.3560
2023-04-16T01:24:21.872Z,26.9993
2023-04-16T01:25:24.227Z,28.2283
2023-04-16T01:26:26.602Z,28.0088
2023-04-16T01:27:28.879Z,23.5402
2023-04-16T01:28:31.228Z,27.9569
2023-04-16T01:29:33.638Z,29.0551
2023-04-16T01:30:35.899Z,29.0396
2023-04-16T01:31:38.340Z,26.1397
2023-04-16T01:32:40.600Z,25.0481
2023-04-16T01:33:42.858Z,31.4821
2023-04-16T01:34:45.254Z,27.1728
2023-04-16T01:35:47.613Z,25.7865
2023-04-16T01:36:49.868Z,25.4365
2023-04-16T01:37:52.213Z,25.9658
2023-04-16T01:38:54.558Z,27.2021
2023-04-16T01:39:56.863Z,27.4251
2023-04-16T01:40:59.231Z,27.4206
2023-04-16T01:42:01.547Z,25.2073
2023-04-16T01:43:03.891Z,24.6965
2023-04-16T01:44:06.230Z,27.4471
2023-04-16T01:45:08.519Z,24.5302
2023-04-16T01:46:10.895Z,26.1064
2023-04-16T01:47:13.235Z,30.9427
2023-04-16T01:48:15.508Z,29.4049
2023-04-16T01:49:17.897Z,29.2839
2023-04-16T01:50:20.201Z,26.6984
2023-04-16T01:51:22.467Z,27.6805
2023-04-16T01:52:24.815Z,26.9990
2023-04-16T01:53:27.178Z,30.8956
2023-04-16T01:54:29.466Z,27.9547
2023-04-16T01:55:31.828Z,26.7437
2023-04-16T01:56:34.102Z,26.9160
2023-04-16T01:57:36.470Z,28.5779
2023-04-16T01:58:38.944Z,28.6527
2023-04-16T01:59:41.153Z,29.2610
2023-04-16T02:00:43.492Z,28.9483
2023-04-16T02:01:45.848Z,29.4111
2023-04-16T02:02:48.288Z,27.3590
2023-04-16T02:03:50.587Z,28.4543
2023-04-16T02:04:52.780Z,26.3056
2023-04-16T02:05:55.081Z,28.7144
2023-04-16T02:06:57.442Z,31.2363
2023-04-16T02:07:59.800Z,30.5186
2023-04-16T02:09:02.162Z,30.2749
2023-04-16T02:10:04.426Z,30.1368
2023-04-16T02:11:06.800Z,31.9328
2023-04-16T02:12:09.081Z,34.2956
2023-04-16T02:13:11.414Z,31.0400
2023-04-16T02:14:13.771Z,30.2713
2023-04-16T02:15:16.033Z,29.7025
2023-04-16T02:16:18.446Z,31.1792
2023-04-16T02:17:20.809Z,31.2633
2023-04-16T02:18:23.061Z,35.2486
2023-04-16T02:19:25.441Z,33.5657
2023-04-16T02:20:27.790Z,30.3876
2023-04-16T02:21:30.118Z,30.3827
2023-04-16T02:22:32.385Z,30.3505
2023-04-16T02:23:34.748Z,32.4569
2023-04-16T02:24:37.137Z,31.7763
2023-04-16T02:25:39.377Z,31.4693
2023-04-16T02:26:41.705Z,30.2162
2023-04-16T02:27:44.037Z,30.6020
2023-04-16T02:28:46.416Z,31.1589
2023-04-16T02:29:48.723Z,31.9702
2023-04-16T02:30:51.058Z,32.5205
2023-04-16T02:31:53.475Z,29.2843
2023-04-16T02:32:55.823Z,29.5835
2023-04-16T02:33:58.064Z,31.7524
2023-04-16T02:35:00.387Z,30.5738
2023-04-16T02:36:02.734Z,32.7384
2023-04-16T02:37:05.062Z,30.1833
2023-04-16T02:38:07.415Z,32.1240
2023-04-16T02:39:09.879Z,31.7495
2023-04-16T02:40:12.099Z,29.7968
2023-04-16T02:41:14.596Z,31.0106
2023-04-16T02:42:16.891Z,31.0560
2023-04-16T02:43:19.137Z,30.0493
2023-04-16T02:44:21.466Z,31.2259
2023-04-16T02:45:23.845Z,28.7450
2023-04-16T02:46:26.121Z,32.4594
2023-04-16T02:47:28.495Z,36.1349
2023-04-16T02:48:30.786Z,32.5160
2023-04-16T02:49:33.166Z,29.7065
2023-04-16T02:50:35.435Z,32.8611
2023-04-16T02:51:37.780Z,29.9541
2023-04-16T02:52:40.239Z,33.4120
2023-04-16T02:53:42.462Z,33.5419
2023-04-16T02:54:44.764Z,35.8499
2023-04-16T02:55:47.230Z,34.2091
2023-04-16T02:56:49.393Z,32.3121
2023-04-16T02:57:51.775Z,32.5785
2023-04-16T02:58:54.051Z,36.5334
2023-04-16T02:59:56.418Z,32.9368
2023-04-16T03:00:58.763Z,31.3820
2023-04-16T03:02:01.121Z,32.7852
2023-04-16T03:03:03.500Z,31.2585
2023-04-16T03:04:05.777Z,31.8872
2023-04-16T03:05:08.035Z,30.0420
2023-04-16T03:06:10.365Z,30.8733
2023-04-16T03:07:12.730Z,31.6992
2023-04-16T03:08:15.117Z,31.0622
2023-04-16T03:09:17.394Z,28.8034
2023-04-16T03:10:19.688Z,31.3573
2023-04-16T03:11:22.067Z,30.7851
2023-04-16T03:12:24.428Z,29.7241
2023-04-16T03:13:26.778Z,30.2122
2023-04-16T03:14:29.011Z,31.5509
2023-04-16T03:15:31.518Z,29.6973
2023-04-16T03:16:33.697Z,30.1563
2023-04-16T03:17:36.041Z,30.0232
2023-04-16T03:18:38.410Z,30.5818
2023-04-16T03:19:40.836Z,30.7776
2023-04-16T03:20:42.966Z,31.1697
2023-04-16T03:21:45.322Z,30.7784
2023-04-16T03:22:47.664Z,29.3172
2023-04-16T03:23:49.986Z,29.8147
2023-04-16T03:24:52.337Z,29.8554
2023-04-16T03:25:54.739Z,31.7442
2023-04-16T03:26:56.990Z,31.1019
2023-04-16T03:27:59.292Z,30.7481
2023-04-16T03:29:01.688Z,32.9052
2023-04-16T03:30:03.950Z,30.1520
2023-04-16T03:31:06.366Z,30.7075
2023-04-16T03:32:08.660Z,35.6554
2023-04-16T03:33:10.998Z,37.8429
2023-04-16T03:34:13.347Z,34.0753
2023-04-16T03:35:15.579Z,36.8434
2023-04-16T03:36:17.977Z,35.0656
2023-04-16T03:37:20.330Z,33.2739
2023-04-16T03:38:22.642Z,38.5499
2023-04-16T03:39:25.044Z,36.2005
2023-04-16T03:40:27.341Z,34.5696
2023-04-16T03:41:29.662Z,36.2386
2023-04-16T03:42:31.905Z,35.1685
2023-04-16T03:43:34.321Z,36.3978
2023-04-16T03:44:36.616Z,35.7171
2023-04-16T03:45:38.903Z,36.6665
2023-04-16T03:46:41.294Z,36.2216
2023-04-16T03:47:43.666Z,34.5593
2023-04-16T03:48:45.866Z,36.5734
2023-04-16T03:49:48.211Z,35.2613
2023-04-16T03:50:50.550Z,35.2207
2023-04-16T03:51:52.872Z,36.9708
2023-04-16T03:52:55.160Z,38.1867
2023-04-16T03:53:57.524Z,38.8525
2023-04-16T03:54:59.839Z,34.3040
2023-04-16T03:56:02.155Z,35.5358
2023-04-16T03:57:04.513Z,35.8505
2023-04-16T03:58:06.843Z,38.7213
2023-04-16T03:59:09.387Z,36.0785
2023-04-16T04:00:11.544Z,33.4112
2023-04-16T04:01:13.802Z,34.6863
2023-04-16T04:02:16.217Z,35.8860
2023-04-16T04:03:18.764Z,38.0345
2023-04-16T04:04:20.891Z,34.3913
2023-04-16T04:05:23.186Z,35.3307
2023-04-16T04:06:25.522Z,37.4352
2023-04-16T04:07:27.861Z,35.8225
2023-04-16T04:08:30.124Z,36.3445
2023-04-16T04:09:32.528Z,34.3538
2023-04-16T04:10:34.854Z,37.4438
2023-04-16T04:11:37.780Z,38.3509
2023-04-16T04:12:39.452Z,37.4049
2023-04-16T04:13:41.810Z,35.6170
2023-04-16T04:14:44.100Z,32.6612
2023-04-16T04:15:46.452Z,34.1311
2023-04-16T04:16:48.825Z,34.1053
2023-04-16T04:17:51.120Z,34.5757
2023-04-16T04:18:53.436Z,32.4337
2023-04-16T04:20:58.170Z,34.9918
2023-04-16T04:22:00.471Z,34.2181
2023-04-16T04:23:02.920Z,32.6643
2023-04-16T04:24:05.171Z,35.6246
2023-04-16T04:25:07.434Z,33.3833
2023-04-16T04:26:09.830Z,32.3581
2023-04-16T04:27:12.141Z,31.6727
2023-04-16T04:28:14.544Z,34.6934
2023-04-16T04:29:16.748Z,33.1744
2023-04-16T04:30:19.104Z,32.2371
2023-04-16T04:31:21.459Z,30.7649
2023-04-16T04:32:23.755Z,33.8971
2023-04-16T04:33:26.043Z,31.8251
2023-04-16T04:34:28.373Z,33.3280
2023-04-16T04:35:30.762Z,35.7136
2023-04-16T04:36:33.062Z,33.1317
2023-04-16T04:37:35.371Z,34.1130
2023-04-16T04:38:37.758Z,32.3270
2023-04-16T04:39:40.064Z,35.5569
2023-04-16T04:40:42.378Z,35.0757
2023-04-16T04:41:44.751Z,36.6362
2023-04-16T04:42:46.997Z,35.3135
2023-04-16T04:43:49.360Z,37.0257
2023-04-16T04:44:51.678Z,34.0288
2023-04-16T04:45:54.096Z,34.3755
2023-04-16T04:46:56.390Z,34.7514
2023-04-16T04:47:58.740Z,38.1565
2023-04-16T04:49:01.087Z,38.8829
2023-04-16T04:50:03.453Z,37.8628
2023-04-16T04:51:05.866Z,37.6522
2023-04-16T04:52:08.068Z,38.0834
2023-04-16T04:53:10.345Z,35.4117
2023-04-16T04:54:12.700Z,37.1898
2023-04-16T04:55:15.053Z,34.6125
2023-04-16T04:56:17.384Z,35.2498
2023-04-16T04:57:19.729Z,35.4613
2023-04-16T04:58:22.223Z,32.6008
2023-04-16T04:59:24.371Z,36.2296
2023-04-16T05:00:26.721Z,35.2242
2023-04-16T05:01:29.053Z,34.5990
2023-04-16T05:02:31.508Z,38.1691
2023-04-16T05:03:33.833Z,37.2436
2023-04-16T05:04:36.135Z,35.7356
2023-04-16T05:05:38.367Z,35.1852
2023-04-16T05:06:40.733Z,33.7351
2023-04-16T05:07:43.060Z,34.5875
2023-04-16T05:08:45.353Z,33.9617
2023-04-16T05:09:47.681Z,31.8223
2023-04-16T05:10:50.065Z,31.1429
2023-04-16T05:11:52.357Z,32.5139
2023-04-16T05:12:54.702Z,33.6875
2023-04-16T05:13:56.988Z,35.2562
2023-04-16T05:14:59.350Z,35.6770
2023-04-16T05:16:01.786Z,36.0457
2023-04-16T05:17:04.157Z,35.8676
2023-04-16T05:18:06.431Z,36.4337
2023-04-16T05:19:09.025Z,36.2548
2023-04-16T05:20:11.026Z,35.1167
2023-04-16T05:21:13.401Z,34.6263
2023-04-16T05:22:15.699Z,35.5292
2023-04-16T05:23:17.996Z,37.5115
2023-04-16T05:24:20.369Z,36.4925
2023-04-16T05:25:22.741Z,33.4020
2023-04-16T05:26:25.041Z,32.8307
2023-04-16T05:27:27.336Z,31.0564
2023-04-16T05:28:29.662Z,32.7177
2023-04-16T05:29:31.992Z,31.6683
2023-04-16T05:30:34.357Z,30.7721
2023-04-16T05:31:36.712Z,29.3497
2023-04-16T05:32:39.024Z,33.0810
2023-04-16T05:33:41.380Z,30.8648
2023-04-16T05:34:43.641Z,28.2619
2023-04-16T05:35:45.954Z,32.4613
2023-04-16T05:36:48.334Z,31.2090
2023-04-16T05:37:50.647Z,29.1250
2023-04-16T05:38:53.002Z,29.3444
2023-04-16T05:39:55.316Z,30.5445
2023-04-16T05:40:57.638Z,30.2048
2023-04-16T05:41:59.994Z,28.2683
2023-04-16T05:43:02.305Z,26.7090
2023-04-16T05:44:04.729Z,25.2936
2023-04-16T05:45:06.988Z,25.1068
2023-04-16T05:46:09.333Z,24.9866
2023-04-16T05:47:11.689Z,25.2844
2023-04-16T05:48:13.964Z,25.6452
2023-04-16T05:49:16.318Z,26.0394
2023-04-16T05:50:18.641Z,21.2334
2023-04-16T05:51:20.973Z,22.6668
2023-04-16T05:52:23.348Z,23.4106
2023-04-16T05:53:25.688Z,21.2968
2023-04-16T05:54:27.976Z,24.1728
2023-04-16T05:55:30.319Z,21.8481
2023-04-16T05:56:32.638Z,21.7282
2023-04-16T05:57:34.981Z,23.3243
2023-04-16T05:58:37.319Z,22.6992
2023-04-16T05:59:39.673Z,21.3310
2023-04-16T06:00:41.997Z,19.7431
2023-04-16T06:01:44.301Z,20.4206
2023-04-16T06:02:46.824Z,20.7620
2023-04-16T06:03:49.132Z,22.1413
2023-04-16T06:04:51.319Z,22.6192
2023-04-16T06:05:53.687Z,22.4701
2023-04-16T06:06:56.002Z,21.5270
2023-04-16T06:07:58.360Z,19.6012
2023-04-16T06:09:00.637Z,18.3548
2023-04-16T06:10:03.011Z,18.3615
2023-04-16T06:11:05.379Z,19.5619
2023-04-16T06:12:07.659Z,19.1655
2023-04-16T06:13:09.965Z,19.4784
2023-04-16T06:14:12.329Z,20.4921
2023-04-16T06:15:14.641Z,20.2418
2023-04-16T06:16:17.012Z,20.7649
2023-04-16T06:17:19.310Z,19.1181
2023-04-16T06:18:21.654Z,19.3480
2023-04-16T06:19:23.989Z,16.9517
2023-04-16T06:20:26.337Z,17.9152
2023-04-16T06:21:28.694Z,18.7321
2023-04-16T06:22:31.001Z,20.0872
2023-04-16T06:23:33.568Z,19.8910
2023-04-16T06:24:35.655Z,19.4814
2023-04-16T06:25:37.974Z,20.9764
2023-04-16T06:26:40.329Z,19.6696
2023-04-16T06:27:42.661Z,18.9043
2023-04-16T06:28:44.977Z,18.8861
2023-04-16T06:29:47.324Z,18.6736
2023-04-16T06:30:49.630Z,18.0906
2023-04-16T06:31:52.036Z,18.8426
2023-04-16T06:32:54.352Z,18.5332
2023-04-16T06:33:56.633Z,20.6707
2023-04-16T06:34:58.977Z,19.3404
2023-04-16T06:36:01.315Z,19.6713
2023-04-16T06:37:03.615Z,18.3295
2023-04-16T06:38:05.948Z,19.0232
2023-04-16T06:39:08.685Z,19.3049
2023-04-16T06:40:10.615Z,20.4519
2023-04-16T06:41:12.956Z,19.8243
2023-04-16T06:42:15.272Z,21.3366
2023-04-16T06:43:17.605Z,20.7433
2023-04-16T06:44:19.984Z,17.4775
2023-04-16T06:45:22.355Z,18.1507
2023-04-16T06:46:24.672Z,18.6230
2023-04-16T06:47:27.030Z,21.9746
2023-04-16T06:48:29.322Z,20.2745
2023-04-16T06:49:31.660Z,20.0596
2023-04-16T06:50:33.998Z,18.6438
2023-04-16T06:51:36.342Z,19.4192
2023-04-16T06:52:38.665Z,20.1690
2023-04-16T06:53:40.981Z,20.6362
2023-04-16T06:54:43.353Z,20.4161
2023-04-16T06:55:45.648Z,22.2690
2023-04-16T06:56:47.998Z,21.8795
2023-04-16T06:57:50.310Z,20.7576
2023-04-16T06:58:52.657Z,22.2824
2023-04-16T06:59:54.976Z,20.4865
2023-04-16T07:00:57.323Z,21.4336
2023-04-16T07:01:59.687Z,23.9056
2023-04-16T07:03:02.296Z,20.9018
2023-04-16T07:04:04.504Z,21.2336
2023-04-16T07:05:06.632Z,20.6668
2023-04-16T07:06:08.970Z,21.0375
2023-04-16T07:07:11.337Z,21.2492
2023-04-16T07:08:13.610Z,22.4523
2023-04-16T07:09:15.952Z,24.8415
2023-04-16T07:10:18.292Z,22.4759
2023-04-16T07:11:20.609Z,20.1542
2023-04-16T07:12:23.152Z,23.3978
2023-04-16T07:13:25.275Z,21.4668
2023-04-16T07:14:27.615Z,20.6790
2023-04-16T07:15:29.954Z,19.7410
2023-04-16T07:16:32.285Z,20.0047
2023-04-16T07:17:34.661Z,21.4168
2023-04-16T07:18:36.968Z,18.8083
2023-04-16T07:19:39.290Z,19.6435
2023-04-16T07:20:41.624Z,18.7641
2023-04-16T07:21:43.924Z,19.6848
2023-04-16T07:22:46.270Z,19.7491
2023-04-16T07:23:48.594Z,21.0783
2023-04-16T07:24:50.978Z,20.3433
2023-04-16T07:25:53.263Z,18.5282
2023-04-16T07:26:55.600Z,18.8188
2023-04-16T07:27:57.919Z,20.6867
2023-04-16T07:29:00.250Z,20.8834
2023-04-16T07:30:02.612Z,19.3975
2023-04-16T07:31:04.921Z,19.0516
2023-04-16T07:32:07.307Z,20.7876
2023-04-16T07:33:09.604Z,18.6142
2023-04-16T07:34:11.932Z,18.6086
2023-04-16T07:35:14.278Z,20.1350
2023-04-16T07:36:16.573Z,21.5688
2023-04-16T07:37:18.914Z,18.9787
2023-04-16T07:38:21.245Z,22.6561
2023-04-16T07:39:23.577Z,21.8041
2023-04-16T07:40:25.917Z,19.0974
2023-04-16T07:41:28.257Z,19.6243
2023-04-16T07:42:30.579Z,18.6295
2023-04-16T07:43:32.904Z,15.6129
2023-04-16T07:44:35.246Z,15.5184
2023-04-16T07:45:37.666Z,13.8038
2023-04-16T07:46:46.893Z,14.6009
2023-04-16T07:47:42.305Z,14.7403
2023-04-16T07:48:44.568Z,13.3292
2023-04-16T07:49:46.922Z,15.0151
2023-04-16T07:50:49.234Z,14.8345
2023-04-16T07:51:51.578Z,14.9366
2023-04-16T07:52:53.897Z,14.9426
2023-04-16T07:53:56.216Z,15.3914
2023-04-16T07:54:58.569Z,14.3805
2023-04-16T07:56:00.908Z,14.0526
2023-04-16T07:57:03.218Z,14.4884
2023-04-16T07:58:05.613Z,15.1371
2023-04-16T07:59:21.009Z,15.8074
2023-04-16T08:00:10.225Z,13.9106
2023-04-16T08:01:12.588Z,15.6291
2023-04-16T08:02:14.975Z,13.7977
2023-04-16T08:03:17.338Z,14.1596
2023-04-16T08:04:19.733Z,14.7124
2023-04-16T08:05:21.980Z,13.7990
2023-04-16T08:06:24.199Z,13.5606
2023-04-16T08:07:26.571Z,15.1794
2023-04-16T08:08:28.876Z,13.6202
2023-04-16T08:09:31.198Z,13.6940
2023-04-16T08:10:33.532Z,13.8993
2023-04-16T08:11:35.859Z,14.3188
2023-04-16T08:12:38.207Z,13.2081
2023-04-16T08:13:40.557Z,13.0057
2023-04-16T08:14:42.869Z,14.0848
2023-04-16T08:15:45.217Z,12.2188
2023-04-16T08:16:47.551Z,12.9966
2023-04-16T08:17:49.883Z,13.5974
2023-04-16T08:18:52.252Z,12.8480
2023-04-16T08:19:54.679Z,12.4974
2023-04-16T08:20:56.844Z,12.3026
2023-04-16T08:21:59.189Z,11.8398
2023-04-16T08:23:01.546Z,11.9855
2023-04-16T08:24:03.865Z,11.3196
2023-04-16T08:25:06.214Z,12.8428
2023-04-16T08:26:08.510Z,11.8828
2023-04-16T08:27:18.678Z,10.8687
2023-04-16T08:28:13.201Z,11.1884
2023-04-16T08:29:15.534Z,12.8099
2023-04-16T08:30:17.872Z,11.0900
2023-04-16T08:31:20.227Z,12.3028
2023-04-16T08:32:22.536Z,12.3337
2023-04-16T08:33:24.857Z,11.1129
2023-04-16T08:34:27.187Z,11.6869
2023-04-16T08:35:29.539Z,12.8065
2023-04-16T08:36:31.843Z,10.9655
2023-04-16T08:37:34.175Z,11.5385
2023-04-16T08:38:36.503Z,11.6494
2023-04-16T08:39:38.879Z,12.8185
2023-04-16T08:40:41.178Z,12.7768
2023-04-16T08:41:43.517Z,13.2106
2023-04-16T08:42:45.836Z,12.4509
2023-04-16T08:43:48.174Z,13.2748
2023-04-16T08:44:50.512Z,12.8859
2023-04-16T08:45:52.858Z,12.3240
2023-04-16T08:46:55.242Z,13.4759
2023-04-16T08:47:57.594Z,12.4524
2023-04-16T08:48:59.848Z,12.6009
2023-04-16T08:50:02.189Z,12.3635
2023-04-16T08:51:04.485Z,13.8022
2023-04-16T08:52:06.842Z,15.4802
2023-04-16T08:53:11.109Z,15.6136
2023-04-16T08:54:11.486Z,14.9026
2023-04-16T08:55:13.822Z,16.5451
2023-04-16T08:56:16.152Z,16.2249
2023-04-16T08:57:18.494Z,17.1595
2023-04-16T08:58:20.803Z,17.0186
2023-04-16T08:59:23.135Z,16.3964
2023-04-16T09:00:25.501Z,17.5670
2023-04-16T09:01:27.873Z,16.9299
2023-04-16T09:02:30.280Z,17.5309
2023-04-16T09:03:34.924Z,16.6859
2023-04-16T09:04:34.844Z,16.4520
2023-04-16T09:05:37.147Z,16.6787
2023-04-16T09:06:39.476Z,15.9823
2023-04-16T09:07:41.835Z,15.9201
2023-04-16T09:08:44.142Z,15.3088
2023-04-16T09:09:46.466Z,14.4535
2023-04-16T09:10:48.837Z,15.8729
2023-04-16T09:11:51.124Z,15.9265
2023-04-16T09:12:53.465Z,16.8108
2023-04-16T09:13:55.806Z,17.2433
2023-04-16T09:14:58.146Z,18.5587
2023-04-16T09:16:00.517Z,17.4769
2023-04-16T09:17:02.806Z,16.1017
2023-04-16T09:18:05.139Z,17.3714
2023-04-16T09:19:07.557Z,18.7567
2023-04-16T09:20:09.799Z,17.3897
2023-04-16T09:21:12.155Z,15.6425
2023-04-16T09:22:14.476Z,17.0413
2023-04-16T09:23:16.794Z,16.0002
2023-04-16T09:24:19.130Z,13.9011
2023-04-16T09:25:21.466Z,16.2581
2023-04-16T09:26:23.811Z,15.0322
2023-04-16T09:27:26.234Z,13.4991
2023-04-16T09:28:28.472Z,16.0559
2023-04-16T09:29:30.819Z,16.5941
2023-04-16T09:30:33.130Z,15.3228
2023-04-16T09:31:35.496Z,17.1928
2023-04-16T09:32:37.885Z,18.4333
2023-04-16T09:33:40.154Z,18.5675
2023-04-16T09:34:42.502Z,19.6454
2023-04-16T09:35:44.820Z,20.5291
2023-04-16T09:36:47.149Z,17.6854
2023-04-16T09:37:49.507Z,18.7599
2023-04-16T09:38:51.835Z,18.7245
2023-04-16T09:39:54.154Z,16.2991
2023-04-16T09:40:56.634Z,14.9286
2023-04-16T09:41:58.802Z,15.1273
2023-04-16T09:43:01.157Z,15.1866
2023-04-16T09:44:03.487Z,15.6806
2023-04-16T09:45:06.291Z,16.5727
2023-04-16T09:46:08.691Z,16.5545
2023-04-16T09:47:10.492Z,15.8772
2023-04-16T09:48:12.807Z,16.4330
2023-04-16T09:49:15.162Z,16.0731
2023-04-16T09:50:18.675Z,17.2190
2023-04-16T09:51:19.818Z,16.0104
2023-04-16T09:52:22.164Z,17.6407
2023-04-16T09:53:24.490Z,18.7483
2023-04-16T09:54:26.818Z,16.5518
2023-04-16T09:55:29.163Z,14.7313
2023-04-16T09:56:31.477Z,15.6834
2023-04-16T09:57:33.812Z,15.8247
2023-04-16T09:58:36.212Z,17.5474
2023-04-16T09:59:38.501Z,18.3856
2023-04-16T10:00:42.250Z,15.8449
2023-04-16T10:01:43.270Z,14.8887
2023-04-16T10:02:45.704Z,16.0711
2023-04-16T10:03:47.909Z,16.1219
2023-04-16T10:04:50.479Z,15.3903
2023-04-16T10:05:52.637Z,17.1422
2023-04-16T10:06:54.833Z,16.1808
2023-04-16T10:07:57.160Z,14.4391
2023-04-16T10:08:59.493Z,13.8625
2023-04-16T10:10:01.904Z,16.9493
2023-04-16T10:11:04.155Z,13.4593
2023-04-16T10:12:06.505Z,15.1665
2023-04-16T10:13:08.824Z,14.0735
2023-04-16T10:14:11.160Z,15.2274
2023-04-16T10:15:13.479Z,15.4546
2023-04-16T10:16:15.853Z,16.3430
2023-04-16T10:17:18.146Z,14.9285
2023-04-16T10:18:20.512Z,12.7703
2023-04-16T10:19:22.821Z,15.0678
2023-04-16T10:20:25.152Z,13.7174
2023-04-16T10:21:27.511Z,15.0061
2023-04-16T10:22:29.800Z,14.6223
2023-04-16T10:23:32.136Z,15.8189
2023-04-16T10:24:34.477Z,15.4861
2023-04-16T10:25:36.795Z,16.2616
2023-04-16T10:26:39.130Z,14.2120
2023-04-16T10:27:41.459Z,16.7860
2023-04-16T10:28:43.828Z,17.0326
2023-04-16T10:29:46.174Z,16.0531
2023-04-16T10:30:48.475Z,17.8048
2023-04-16T10:31:50.784Z,18.3616
2023-04-16T10:32:53.145Z,20.6868
2023-04-16T10:33:55.450Z,19.9970
2023-04-16T10:34:57.799Z,18.7848
2023-04-16T10:36:07.426Z,20.9669
2023-04-16T10:37:02.448Z,19.7361
2023-04-16T10:38:04.773Z,20.1328
2023-04-16T10:39:07.105Z,18.8694
2023-04-16T10:40:09.470Z,18.6003
2023-04-16T10:41:11.773Z,17.2987
2023-04-16T10:42:14.104Z,18.6619
2023-04-16T10:43:16.427Z,18.0510
2023-04-16T10:44:18.769Z,17.6955
2023-04-16T10:45:21.136Z,18.7669
2023-04-16T10:46:23.481Z,17.5591
2023-04-16T10:47:25.807Z,20.6402
2023-04-16T10:48:35.598Z,18.4236
2023-04-16T10:49:30.434Z,21.2633
2023-04-16T10:50:32.780Z,21.6798
2023-04-16T10:51:35.183Z,18.5461
2023-04-16T10:52:37.553Z,18.9998
2023-04-16T10:53:39.860Z,19.5307
2023-04-16T10:54:42.192Z,21.4053
2023-04-16T10:55:44.511Z,21.1465
2023-04-16T10:56:46.845Z,21.5313
2023-04-16T10:57:49.186Z,18.5773
2023-04-16T10:58:51.511Z,19.6774
2023-04-16T10:59:53.843Z,22.3244
2023-04-16T11:00:56.194Z,22.9940
2023-04-16T11:01:58.611Z,21.4346
2023-04-16T11:03:00.951Z,20.1404
2023-04-16T11:04:03.339Z,21.0641
2023-04-16T11:05:05.516Z,22.3535
2023-04-16T11:06:07.853Z,23.9064
2023-04-16T11:07:10.191Z,21.4036
2023-04-16T11:08:12.513Z,21.9023
2023-04-16T11:09:14.861Z,22.4288
2023-04-16T11:10:17.206Z,21.2668
2023-04-16T11:11:19.535Z,23.9752
2023-04-16T11:12:21.849Z,22.5589
2023-04-16T11:13:24.181Z,21.1389
2023-04-16T11:14:26.506Z,19.8103
2023-04-16T11:15:28.854Z,21.0706
2023-04-16T11:16:31.236Z,23.0553
2023-04-16T11:17:33.594Z,22.8308
2023-04-16T11:18:35.860Z,22.5814
2023-04-16T11:19:38.175Z,21.9547
2023-04-16T11:20:40.530Z,22.3320
2023-04-16T11:21:42.857Z,24.5358
2023-04-16T11:22:45.171Z,21.0587
2023-04-16T11:23:47.501Z,22.7028
2023-04-16T11:24:49.842Z,22.4539
2023-04-16T11:25:52.190Z,20.8728
2023-04-16T11:26:54.510Z,19.4891
2023-04-16T11:27:56.838Z,17.6772
2023-04-16T11:28:59.177Z,20.5801
2023-04-16T11:30:01.545Z,22.0842
2023-04-16T11:31:03.857Z,20.9721
2023-04-16T11:32:06.177Z,24.4854
2023-04-16T11:33:08.525Z,21.5035
2023-04-16T11:34:10.855Z,24.4159
2023-04-16T11:35:13.179Z,24.3059
2023-04-16T11:36:15.526Z,22.9807
2023-04-16T11:37:17.849Z,26.3805
2023-04-16T11:38:20.189Z,21.9089
2023-04-16T11:39:22.521Z,24.9600
2023-04-16T11:40:24.861Z,21.7188
2023-04-16T11:41:27.184Z,25.5953
2023-04-16T11:42:29.568Z,26.1524
2023-04-16T11:43:31.868Z,25.9317
2023-04-16T11:44:34.196Z,28.5216
2023-04-16T11:45:36.526Z,27.0965
2023-04-16T11:46:38.895Z,29.9483
2023-04-16T11:47:41.320Z,31.2376
2023-04-16T11:48:43.553Z,28.9966
2023-04-16T11:49:45.856Z,28.8121
2023-04-16T11:50:48.201Z,28.7977
2023-04-16T11:51:50.523Z,27.8157
2023-04-16T11:52:52.861Z,25.9890
2023-04-16T11:53:55.213Z,27.5717
2023-04-16T11:54:57.526Z,29.8153
2023-04-16T11:55:59.889Z,27.9173
2023-04-16T11:57:02.201Z,26.8856
2023-04-16T11:58:04.536Z,26.5811
2023-04-16T11:59:06.961Z,26.1627
2023-04-16T12:00:10.548Z,28.1199
2023-04-16T12:01:11.540Z,29.0187
2023-04-16T12:02:13.999Z,28.7535
2023-04-16T12:03:16.441Z,29.0651
2023-04-16T12:04:18.645Z,29.7805
2023-04-16T12:05:20.876Z,28.9699
2023-04-16T12:06:24.399Z,30.3457
2023-04-16T12:07:25.550Z,31.0120
2023-04-16T12:08:27.880Z,28.9790
2023-04-16T12:09:30.218Z,28.9911
2023-04-16T12:10:32.567Z,28.9480
2023-04-16T12:11:34.937Z,27.8136
2023-04-16T12:12:37.232Z,29.5831
2023-04-16T12:13:39.568Z,29.9483
2023-04-16T12:14:41.919Z,31.2322
2023-04-16T12:15:44.285Z,30.5902
2023-04-16T12:16:46.653Z,28.5199
2023-04-16T12:17:48.984Z,28.6901
2023-04-16T12:18:51.256Z,26.8574
2023-04-16T12:19:53.610Z,28.6733
2023-04-16T12:20:55.951Z,24.5648
2023-04-16T12:21:58.272Z,24.3346
2023-04-16T12:23:00.599Z,27.4971
2023-04-16T12:24:02.941Z,26.8309
2023-04-16T12:25:05.298Z,24.0274
2023-04-16T12:26:07.622Z,28.2414
2023-04-16T12:27:09.943Z,29.1785
2023-04-16T12:28:12.299Z,27.8302
2023-04-16T12:29:14.633Z,29.0130
2023-04-16T12:30:16.956Z,27.9779
2023-04-16T12:31:19.348Z,26.4663
2023-04-16T12:32:21.706Z,26.5244
2023-04-16T12:33:23.948Z,28.4927
2023-04-16T12:34:48.087Z,27.6613